createdAt,value
2023-02-03T00:03:13.760Z,5.6
2023-02-03T00:08:14.516Z,5.2
2023-02-03T00:13:15.233Z,5.3
2023-02-03T00:18:15.698Z,5.4
2023-02-03T00:23:16.278Z,5.4
2023-02-03T00:28:17.040Z,5
2023-02-03T00:33:17.815Z,5.1
2023-02-03T00:38:18.547Z,5.3
2023-02-03T00:43:19.101Z,5
2023-02-03T00:48:19.684Z,5.2
2023-02-03T00:53:20.499Z,4.7
2023-02-03T00:58:21.061Z,4.8
2023-02-03T01:03:21.583Z,4.7
2023-02-03T01:08:22.194Z,4.4
2023-02-03T01:13:22.820Z,4.5
2023-02-03T01:18:23.397Z,4.4
2023-02-03T01:23:24.071Z,4.7
2023-02-03T01:28:24.982Z,4.9
2023-02-03T01:33:25.512Z,4.5
2023-02-03T01:38:26.174Z,4.5
2023-02-03T01:43:26.691Z,4.6
2023-02-03T01:48:27.356Z,4.9
2023-02-03T01:53:28.139Z,4.8
2023-02-03T01:58:28.804Z,4.5
2023-02-03T02:03:29.453Z,4.5
2023-02-03T02:08:30.185Z,4.7
2023-02-03T02:13:31.188Z,4.4
2023-02-03T02:18:31.688Z,4.7
2023-02-03T02:23:32.458Z,4.4
2023-02-03T02:28:33.101Z,4.7
2023-02-03T02:33:33.632Z,4.5
2023-02-03T02:38:34.287Z,4.6
2023-02-03T02:43:34.869Z,4.8
2023-02-03T02:48:35.412Z,5
2023-02-03T02:53:36.134Z,4.7
2023-02-03T02:58:36.642Z,4.6
2023-02-03T03:03:37.645Z,4.4
2023-02-03T03:08:38.289Z,4.5
2023-02-03T03:13:39.331Z,4.4
2023-02-03T03:18:39.863Z,4.4
2023-02-03T03:23:40.731Z,4.7
2023-02-03T03:28:44.611Z,4.3
2023-02-03T03:33:45.263Z,4.5
2023-02-03T03:38:45.772Z,4.3
2023-02-03T03:43:46.480Z,4.8
2023-02-03T03:48:47.079Z,4.8
2023-02-03T03:53:47.795Z,4.6
2023-02-03T03:58:48.250Z,4.6
2023-02-03T04:03:48.802Z,4.6
2023-02-03T04:08:49.843Z,4.8
2023-02-03T04:13:50.633Z,4.6
2023-02-03T04:18:51.371Z,4.8
2023-02-03T04:23:52.170Z,4.1
2023-02-03T04:28:53.013Z,4.7
2023-02-03T04:33:53.939Z,4.4
2023-02-03T04:38:54.652Z,4.6
2023-02-03T04:43:55.198Z,4.6
2023-02-03T04:48:55.922Z,4.6
2023-02-03T04:53:56.891Z,5.4
2023-02-03T04:58:57.453Z,5.8
2023-02-03T05:04:57.413Z,27.4
2023-02-03T05:09:58.343Z,6.2
2023-02-03T05:14:59.311Z,5.8
2023-02-03T05:20:00.622Z,5.7
2023-02-03T05:25:01.479Z,5.8
2023-02-03T05:35:06.619Z,6.1
2023-02-03T05:40:07.080Z,5.8
2023-02-03T05:45:07.686Z,5.6
2023-02-03T05:50:08.319Z,5.7
2023-02-03T05:55:09.341Z,5.8
2023-02-03T06:00:10.031Z,6.3
2023-02-03T06:05:10.608Z,6.4
2023-02-03T06:10:11.854Z,7.1
2023-02-03T06:15:12.866Z,7.3
2023-02-03T06:20:14.628Z,8.7
2023-02-03T06:25:15.420Z,7.8
2023-02-03T06:30:17.450Z,6.8
2023-02-03T06:35:18.369Z,7.5
2023-02-03T06:40:19.212Z,7.7
2023-02-03T06:45:19.986Z,6.7
2023-02-03T06:50:20.509Z,7
2023-02-03T06:55:21.391Z,7.8
2023-02-03T07:00:22.324Z,7.8
2023-02-03T07:05:23.027Z,7.9
2023-02-03T07:10:23.814Z,8.4
2023-02-03T07:15:24.321Z,8.7
2023-02-03T07:20:24.924Z,7.4
2023-02-03T07:25:25.763Z,8.4
2023-02-03T07:30:27.605Z,7.9
2023-02-03T07:35:28.596Z,8.1
2023-02-03T07:40:29.859Z,11.2
2023-02-03T07:45:30.463Z,9.1
2023-02-03T07:50:31.899Z,8
2023-02-03T07:55:32.987Z,7.6
2023-02-03T08:00:33.997Z,17.8
2023-02-03T08:05:35.339Z,7.4
2023-02-03T08:10:36.596Z,7.9
2023-02-03T08:16:44.815Z,8
2023-02-03T08:21:45.283Z,7.9
2023-02-03T08:26:45.859Z,7.2
2023-02-03T08:31:49.770Z,6.8
2023-02-03T08:36:50.336Z,6.4
2023-02-03T08:41:50.918Z,6.3
2023-02-03T08:46:51.404Z,6.3
2023-02-03T08:51:51.813Z,6.2
2023-02-03T08:56:52.292Z,7.8
2023-02-03T09:01:52.935Z,7.2
2023-02-03T09:06:53.501Z,8.2
2023-02-03T09:11:54.181Z,6.8
2023-02-03T09:16:58.734Z,6.3
2023-02-03T09:21:59.457Z,5.9
2023-02-03T09:27:00.418Z,5.7
2023-02-03T09:32:01.349Z,6.9
2023-02-03T09:37:01.953Z,6.3
2023-02-03T09:42:02.845Z,6.2
2023-02-03T09:47:03.390Z,6.7
2023-02-03T09:52:04.443Z,7
2023-02-03T09:57:05.280Z,6.6
2023-02-03T10:02:06.100Z,6.4
2023-02-03T10:07:06.563Z,7.1
2023-02-03T10:12:07.067Z,9.3
2023-02-03T10:17:07.750Z,8.3
2023-02-03T10:22:08.229Z,9.6
2023-02-03T10:27:08.697Z,10.1
2023-02-03T10:32:10.069Z,10.6
2023-02-03T10:37:10.692Z,9.3
2023-02-03T10:42:11.231Z,8.7
2023-02-03T10:47:11.771Z,8.9
2023-02-03T10:52:12.309Z,8.5
2023-02-03T10:57:13.069Z,9.7
2023-02-03T11:02:13.676Z,6.7
2023-02-03T11:07:14.283Z,5.8
2023-02-03T11:12:15.062Z,4.6
2023-02-03T11:17:15.559Z,5.2
2023-02-03T11:22:16.301Z,5
2023-02-03T11:27:17.103Z,5.4
2023-02-03T11:32:17.783Z,6.1
2023-02-03T11:37:18.338Z,5.6
2023-02-03T11:42:20.034Z,4.8
2023-02-03T11:47:23.695Z,4
2023-02-03T11:52:24.637Z,4.1
2023-02-03T11:57:25.068Z,4.5
2023-02-03T12:02:26.700Z,4.7
2023-02-03T12:07:27.159Z,4.9
2023-02-03T12:12:27.702Z,5.1
2023-02-03T12:17:28.218Z,5.7
2023-02-03T12:22:28.741Z,5.1
2023-02-03T12:27:29.419Z,4.4
2023-02-03T12:32:29.929Z,5.1
2023-02-03T12:37:30.414Z,5.3
2023-02-03T12:42:30.969Z,5.8
2023-02-03T12:48:00.829Z,8.4
2023-02-03T12:53:01.334Z,10.2
2023-02-03T12:58:01.799Z,9.4
2023-02-03T13:03:02.299Z,10.9
2023-02-03T13:08:02.900Z,11.3
2023-02-03T13:13:03.412Z,10
2023-02-03T13:18:03.978Z,11.7
2023-02-03T13:23:04.653Z,12.1
2023-02-03T13:28:05.209Z,15.1
2023-02-03T13:33:09.158Z,14.4
2023-02-03T13:38:10.141Z,8.6
2023-02-03T13:43:10.663Z,7.9
2023-02-03T13:48:11.422Z,8.4
2023-02-03T13:53:11.827Z,8.5
2023-02-03T13:58:12.707Z,11.5
2023-02-03T14:03:13.328Z,9.8
2023-02-03T14:08:13.977Z,9.7
2023-02-03T14:13:14.718Z,10.4
2023-02-03T14:18:15.630Z,10.5
2023-02-03T14:23:16.150Z,10.5
2023-02-03T14:28:16.748Z,10.5
2023-02-03T14:33:20.410Z,10.9
2023-02-03T14:38:20.909Z,10.6
2023-02-03T14:43:21.492Z,10.4
2023-02-03T14:48:22.063Z,10.7
2023-02-03T14:53:22.588Z,11
2023-02-03T14:58:23.490Z,10.3
2023-02-03T15:03:23.963Z,10.7
2023-02-03T15:08:24.444Z,11.4
2023-02-03T15:13:25.123Z,14.8
2023-02-03T15:18:25.569Z,11.1
2023-02-03T15:23:25.935Z,12.1
2023-02-03T15:28:26.601Z,12.9
2023-02-03T15:33:28.686Z,12
2023-02-03T15:38:29.128Z,12
2023-02-03T15:43:29.680Z,12.1
2023-02-03T15:48:30.450Z,12.9
2023-02-03T15:53:47.699Z,13.2
2023-02-03T15:58:38.503Z,14.6
2023-02-03T16:03:39.143Z,14
2023-02-03T16:08:39.640Z,14.1
2023-02-03T16:13:40.189Z,14.3
2023-02-03T16:18:41.161Z,15.1
2023-02-03T16:23:41.858Z,14.7
2023-02-03T16:28:42.276Z,15.1
2023-02-03T16:33:43.038Z,15.4
2023-02-03T16:38:44.690Z,16
2023-02-03T16:43:45.485Z,16.6
2023-02-03T16:48:46.413Z,17.1
2023-02-03T16:53:46.903Z,15.3
2023-02-03T16:58:47.412Z,13.8
2023-02-03T17:03:48.070Z,13.9
2023-02-03T17:08:48.516Z,12.6
2023-02-03T17:13:49.099Z,12.3
2023-02-03T17:18:49.550Z,12.8
2023-02-03T17:23:49.975Z,11.5
2023-02-03T17:28:50.615Z,10.7
2023-02-03T17:33:51.188Z,10.7
2023-02-03T17:54:19.074Z,9.6
2023-02-03T17:59:23.150Z,9.9
2023-02-03T18:04:24.592Z,9.6
2023-02-03T18:09:25.489Z,8.6
2023-02-03T18:14:26.029Z,8.1
2023-02-03T18:19:26.796Z,7.8
2023-02-03T18:24:29.249Z,8.1
2023-02-03T18:29:30.031Z,8.7
2023-02-03T18:34:30.808Z,8.3
2023-02-03T18:39:31.509Z,7.9
2023-02-03T18:44:32.030Z,8.3
2023-02-03T18:49:33.189Z,8.1
2023-02-03T18:54:33.692Z,7.5
2023-02-03T18:59:34.482Z,8.5
2023-02-03T19:04:37.380Z,8.3
2023-02-03T19:09:39.954Z,7.3
2023-02-03T19:14:41.467Z,6.7
2023-02-03T19:19:41.936Z,6.8
2023-02-03T19:24:42.474Z,6.4
2023-02-03T19:29:43.110Z,6.6
2023-02-03T19:34:44.257Z,7.1
2023-02-03T19:39:44.652Z,7.3
2023-02-03T19:44:48.420Z,7.4
2023-02-03T19:49:49.933Z,6.9
2023-02-03T19:54:50.602Z,7.1
2023-02-03T19:59:51.071Z,6.5
2023-02-03T20:04:52.980Z,6.5
2023-02-03T20:09:53.420Z,5.8
2023-02-03T20:14:53.858Z,5.7
2023-02-03T20:19:54.271Z,5.4
2023-02-03T20:24:54.725Z,5
2023-02-03T20:29:55.220Z,4.5
2023-02-03T20:34:55.694Z,4.9
2023-02-03T20:39:56.293Z,6.3
2023-02-03T20:44:58.888Z,5
2023-02-03T20:50:00.145Z,4.4
2023-02-03T20:55:00.686Z,3.9
2023-02-03T21:00:01.568Z,3.5
2023-02-03T21:05:02.132Z,3.9
2023-02-03T21:10:02.554Z,3.5
2023-02-03T21:15:03.057Z,3.1
2023-02-03T21:20:15.578Z,3.1
2023-02-03T21:25:06.054Z,2.9
2023-02-03T21:30:06.574Z,2.8
2023-02-03T21:35:07.195Z,2.9
2023-02-03T21:40:08.685Z,2.7
2023-02-03T21:45:10.549Z,2.6
2023-02-03T21:50:11.866Z,2.8
2023-02-03T21:55:12.378Z,2.6
2023-02-03T22:00:12.873Z,2.5
2023-02-03T22:05:14.003Z,17
2023-02-03T22:10:15.152Z,2.7
2023-02-03T22:15:15.913Z,2.7
2023-02-03T22:20:16.423Z,2.6
2023-02-03T22:25:16.904Z,3.2
2023-02-03T22:30:17.443Z,2.5
2023-02-03T22:35:18.180Z,2.9
2023-02-03T22:40:18.748Z,3.3
2023-02-03T22:45:19.728Z,3.5
2023-02-03T22:50:35.296Z,3
2023-02-03T22:55:26.092Z,2.8
2023-02-03T23:00:26.589Z,3
2023-02-03T23:05:27.192Z,3.1
2023-02-03T23:10:27.673Z,2.8
2023-02-03T23:15:28.255Z,2.9
2023-02-03T23:20:29.141Z,2.9
2023-02-03T23:25:29.883Z,3
2023-02-03T23:30:31.419Z,3
2023-02-03T23:35:32.311Z,3.1
2023-02-03T23:40:33.539Z,3.1
2023-02-03T23:45:34.094Z,3.2
2023-02-03T23:50:34.767Z,3.3
2023-02-03T23:55:35.193Z,3.2
